Terminal Aerodrome Forecast
Issued by NWS Charleston, WV

Current Version | Previous Version | Text Only | Print | Product List | Glossary Off
Versions: 1 2 3 4 5 6 7 8 9 10 11 12 13 14 15 16 17 18 19 20 21 22 23

000
FTUS41 KRLX 160900 AAA
TAFCRW
TAF AMD
KCRW 160904Z 1609/1706 34005KT P6SM SCT015 BKN025
     FM161400 35005KT 6SM BR BKN035
     FM161700 00000KT P6SM SCT045 BKN060
     FM162000 35004KT P6SM SCT025
     FM162200 VRB03KT P6SM SCT040=

USA.gov is the U.S. government's official web portal to all federal, state and local government web resources and services.